Pillsbury, North Dakota
Current Conditions -  °F | °C
As of 7:35 PM on Thursday 18 Dec 2014 (Local Time) from KBAC Reporting Station
Overcast Overcast  
Wind Chill:   Ceiling: 400
Heat Index: 19°   Visibility: 7mi
Dew Point: 19°   Wind: 9mph
Humidity: 100%   Direction: 160°SSE
Pressure: 30.1"   Gusts: NA
Location:  47.21°N, 97.79°W
Report Text: KBAC 190135Z AUTO 16008KT 7SM OVC004 M07/M07 A3010 RMK AO2
Loading
Personal Weather Stations






























Interactive Weather Map New forecast layout! Learn more

10-Day Weather Forecast

Advertisements
Track Severe Weather on mobile